createdAt,value
2024-04-22T00:02:29.310Z,8.10
2024-04-22T00:07:31.098Z,8.70
2024-04-22T00:12:32.973Z,7.20
2024-04-22T00:17:35.513Z,7.40
2024-04-22T00:22:37.451Z,8.00
2024-04-22T00:27:39.200Z,7.60
2024-04-22T00:32:41.059Z,7.30
2024-04-22T00:37:42.995Z,7.20
2024-04-22T00:42:48.315Z,5.90
2024-04-22T00:47:50.611Z,5.20
2024-04-22T00:52:53.435Z,5.40
2024-04-22T00:57:58.397Z,6.40
2024-04-22T01:03:00.108Z,8.70
2024-04-22T01:08:02.487Z,8.40
2024-04-22T01:13:04.976Z,8.60
2024-04-22T01:18:07.029Z,7.90
2024-04-22T01:23:08.668Z,7.00
2024-04-22T01:28:10.468Z,6.70
2024-04-22T01:33:12.395Z,6.80
2024-04-22T01:38:14.116Z,7.60
2024-04-22T01:43:15.907Z,7.40
2024-04-22T01:48:17.751Z,6.80
2024-04-22T01:53:19.414Z,6.00
2024-04-22T01:58:21.183Z,6.40
2024-04-22T02:03:23.170Z,6.70
2024-04-22T02:08:24.884Z,7.40
2024-04-22T02:13:26.664Z,7.10
2024-04-22T02:18:28.654Z,6.20
2024-04-22T02:23:30.548Z,6.10
2024-04-22T02:28:32.322Z,5.70
2024-04-22T02:33:34.172Z,5.50
2024-04-22T02:38:36.010Z,5.20
2024-04-22T02:43:37.803Z,5.90
2024-04-22T02:48:39.697Z,6.50
2024-04-22T02:53:41.569Z,7.10
2024-04-22T02:58:46.340Z,7.10
2024-04-22T03:03:48.159Z,8.00
2024-04-22T03:08:51.631Z,7.50
2024-04-22T03:13:53.504Z,7.30
2024-04-22T03:18:55.256Z,7.60
2024-04-22T03:23:56.997Z,7.00
2024-04-22T03:28:58.793Z,7.90
2024-04-22T03:34:00.880Z,6.50
2024-04-22T03:39:02.549Z,6.40
2024-04-22T03:44:04.436Z,6.00
2024-04-22T03:49:24.988Z,6.50
2024-04-22T03:54:26.673Z,5.90
2024-04-22T03:59:28.516Z,5.90
2024-04-22T04:04:30.379Z,6.20
2024-04-22T04:09:32.271Z,5.90
2024-04-22T04:14:34.032Z,6.20
2024-04-22T04:19:35.950Z,6.60
2024-04-22T04:24:37.823Z,8.20
2024-04-22T04:29:39.571Z,7.10
2024-04-22T04:34:43.581Z,9.30
2024-04-22T04:39:45.332Z,10.20
2024-04-22T04:44:47.021Z,9.40
2024-04-22T04:49:48.961Z,9.40
2024-04-22T04:54:53.141Z,8.40
2024-04-22T04:59:55.220Z,8.80
2024-04-22T05:04:56.963Z,8.80
2024-04-22T05:09:58.725Z,9.10
2024-04-22T05:15:01.612Z,7.80
2024-04-22T05:20:03.630Z,7.80
2024-04-22T05:25:05.479Z,7.70
2024-04-22T05:30:07.596Z,7.40
2024-04-22T05:35:28.180Z,7.40
2024-04-22T05:40:30.641Z,7.60
2024-04-22T05:45:33.901Z,8.10
2024-04-22T05:50:35.667Z,5.90
2024-04-22T05:55:37.468Z,6.30
2024-04-22T06:00:39.328Z,6.80
2024-04-22T06:05:41.290Z,6.80
2024-04-22T06:10:47.191Z,6.30
2024-04-22T06:15:49.090Z,5.70
2024-04-22T06:20:50.888Z,6.00
2024-04-22T06:25:52.663Z,5.40
2024-04-22T06:30:54.381Z,5.10
2024-04-22T06:35:56.946Z,4.80
2024-04-22T06:40:58.654Z,4.60
2024-04-22T06:46:00.443Z,4.00
2024-04-22T06:51:02.210Z,4.20
2024-04-22T06:56:04.211Z,4.40
2024-04-22T07:01:05.864Z,4.00
2024-04-22T07:06:11.218Z,3.60
2024-04-22T07:11:12.981Z,3.20
2024-04-22T07:16:15.224Z,3.20
2024-04-22T07:21:17.182Z,3.30
2024-04-22T07:26:19.011Z,2.80
2024-04-22T07:31:21.080Z,2.30
2024-04-22T07:36:32.120Z,2.30
2024-04-22T07:41:34.229Z,2.40
2024-04-22T07:46:36.266Z,2.40
2024-04-22T07:51:38.868Z,2.30
2024-04-22T07:56:41.012Z,2.10
2024-04-22T08:01:43.094Z,2.10
2024-04-22T08:06:45.671Z,2.20
2024-04-22T08:11:47.486Z,2.50
2024-04-22T08:16:49.334Z,2.60
2024-04-22T08:21:51.208Z,2.40
2024-04-22T08:26:57.149Z,2.30
2024-04-22T08:31:58.874Z,2.30
2024-04-22T08:37:00.634Z,2.10
2024-04-22T08:42:10.787Z,2.40
2024-04-22T08:47:12.514Z,2.30
2024-04-22T08:52:16.453Z,1.80
2024-04-22T08:57:18.726Z,1.90
2024-04-22T09:02:21.766Z,2.00
2024-04-22T09:07:23.531Z,1.90
2024-04-22T09:12:25.561Z,1.90
2024-04-22T09:17:27.916Z,2.10
2024-04-22T09:22:31.398Z,1.90
2024-04-22T09:27:33.473Z,3.00
2024-04-22T09:32:36.783Z,2.30
2024-04-22T09:37:39.942Z,1.90
2024-04-22T09:42:43.504Z,2.00
2024-04-22T09:47:47.650Z,1.90
2024-04-22T09:52:51.043Z,2.00
2024-04-22T09:58:01.795Z,1.80
2024-04-22T10:03:06.923Z,2.10
2024-04-22T10:08:09.062Z,2.10
2024-04-22T10:13:12.400Z,2.10
2024-04-22T10:18:16.618Z,2.00
2024-04-22T10:23:18.551Z,2.10
2024-04-22T10:28:20.461Z,1.90
2024-04-22T10:33:22.204Z,2.00
2024-04-22T10:38:23.902Z,2.10
2024-04-22T10:43:25.799Z,2.60
2024-04-22T10:48:28.092Z,2.10
2024-04-22T10:53:29.913Z,2.10
2024-04-22T10:58:31.663Z,2.10
2024-04-22T11:03:33.662Z,2.40
2024-04-22T11:08:36.682Z,2.60
2024-04-22T11:13:39.092Z,2.30
2024-04-22T11:18:40.913Z,2.20
2024-04-22T11:23:43.238Z,2.20
2024-04-22T11:28:46.702Z,1.90
2024-04-22T11:33:48.586Z,2.00
2024-04-22T11:38:51.594Z,2.10
2024-04-22T11:43:54.499Z,2.20
2024-04-22T11:48:56.223Z,2.40
2024-04-22T11:53:58.198Z,2.20
2024-04-22T11:59:00.782Z,2.80
2024-04-22T12:04:02.945Z,2.20
2024-04-22T12:09:06.726Z,2.20
2024-04-22T12:14:09.986Z,2.50
2024-04-22T12:19:11.613Z,2.40
2024-04-22T12:24:13.372Z,2.50
2024-04-22T12:29:15.117Z,2.40
2024-04-22T12:34:17.127Z,2.80
2024-04-22T12:39:20.692Z,2.90
2024-04-22T12:44:22.425Z,2.30
2024-04-22T12:49:42.921Z,2.90
2024-04-22T12:54:44.733Z,3.40
2024-04-22T12:59:46.493Z,2.80
2024-04-22T13:04:48.236Z,3.30
2024-04-22T13:09:49.999Z,3.30
2024-04-22T13:14:53.618Z,2.90
2024-04-22T13:19:55.421Z,2.90
2024-04-22T13:24:57.307Z,3.00
2024-04-22T13:30:03.047Z,2.80
2024-04-22T13:35:05.456Z,3.10
2024-04-22T13:40:08.961Z,3.10
2024-04-22T13:45:10.669Z,2.70
2024-04-22T13:50:12.590Z,2.90
2024-04-22T13:55:14.703Z,3.10
2024-04-22T14:00:16.663Z,3.40
2024-04-22T14:05:18.589Z,3.50
2024-04-22T14:10:20.433Z,3.20
2024-04-22T14:15:27.649Z,3.40
2024-04-22T14:20:39.081Z,4.00
2024-04-22T14:25:40.834Z,3.50
2024-04-22T14:30:42.626Z,3.60
2024-04-22T14:35:44.340Z,3.70
2024-04-22T14:40:46.123Z,4.00
2024-04-22T14:45:47.979Z,4.10
2024-04-22T14:50:53.371Z,3.70
2024-04-22T14:55:55.036Z,4.20
2024-04-22T15:00:56.861Z,4.00
2024-04-22T15:05:58.668Z,4.10
2024-04-22T15:11:03.999Z,3.80
2024-04-22T15:16:08.040Z,4.00
2024-04-22T15:21:09.961Z,4.00
2024-04-22T15:26:11.907Z,4.30
2024-04-22T15:31:13.640Z,4.30
2024-04-22T15:36:17.382Z,4.70
2024-04-22T15:41:19.164Z,5.00
2024-04-22T15:46:20.946Z,4.90
2024-04-22T15:51:23.882Z,4.30
2024-04-22T15:56:25.660Z,5.00
2024-04-22T16:01:27.499Z,4.40
2024-04-22T16:06:29.240Z,5.10
2024-04-22T16:11:32.975Z,4.50
2024-04-22T16:16:36.572Z,4.70
2024-04-22T16:21:38.386Z,4.50
2024-04-22T16:26:40.137Z,5.10
2024-04-22T16:31:42.510Z,5.20
2024-04-22T16:36:45.312Z,5.30
2024-04-22T16:41:47.064Z,5.10
2024-04-22T16:46:48.817Z,5.00
2024-04-22T16:51:50.608Z,5.30
2024-04-22T16:56:52.235Z,5.30
2024-04-22T17:01:53.986Z,5.50
2024-04-22T17:06:55.936Z,4.90
2024-04-22T17:11:57.753Z,4.80
2024-04-22T17:17:01.748Z,5.40
2024-04-22T17:22:05.184Z,5.30
2024-04-22T17:27:06.952Z,5.40
2024-04-22T17:32:08.781Z,5.60
2024-04-22T17:37:12.484Z,5.50
2024-04-22T17:42:14.427Z,6.90
2024-04-22T17:47:16.214Z,7.40
2024-04-22T17:52:17.993Z,7.90
2024-04-22T17:57:19.742Z,8.60
2024-04-22T18:02:21.540Z,7.90
2024-04-22T18:07:23.387Z,9.80
2024-04-22T18:12:25.102Z,8.40
2024-04-22T18:17:27.424Z,7.80
2024-04-22T18:22:32.370Z,7.00
2024-04-22T18:27:40.169Z,7.50
2024-04-22T18:32:43.490Z,8.00
2024-04-22T18:37:45.276Z,8.20
2024-04-22T18:42:47.011Z,9.00
2024-04-22T18:47:48.854Z,11.20
2024-04-22T18:52:50.776Z,15.30
2024-04-22T18:57:52.735Z,13.00
2024-04-22T19:02:55.185Z,12.60
2024-04-22T19:07:57.032Z,14.50
2024-04-22T19:12:58.994Z,12.80
2024-04-22T19:18:00.929Z,10.10
2024-04-22T19:23:02.884Z,10.20
2024-04-22T19:28:04.924Z,10.30
2024-04-22T19:33:07.663Z,10.10
2024-04-22T19:38:09.414Z,11.80
2024-04-22T19:43:11.141Z,11.20
2024-04-22T19:48:13.226Z,13.40
2024-04-22T19:53:15.208Z,15.90
2024-04-22T19:58:17.052Z,16.50
2024-04-22T20:03:18.776Z,16.80
2024-04-22T20:08:21.441Z,20.60
2024-04-22T20:13:23.261Z,27.30
2024-04-22T20:18:40.538Z,28.80
2024-04-22T20:23:42.286Z,33.20
2024-04-22T20:28:44.086Z,35.10
2024-04-22T20:33:46.280Z,33.90
2024-04-22T20:38:48.125Z,32.90
2024-04-22T20:43:49.912Z,28.20
2024-04-22T20:48:51.751Z,28.60
2024-04-22T20:53:53.473Z,27.40
2024-04-22T20:58:56.441Z,30.00
2024-04-22T21:03:58.250Z,34.80
2024-04-22T21:09:04.088Z,35.70
2024-04-22T21:14:06.079Z,34.10
2024-04-22T21:19:15.064Z,43.50
2024-04-22T21:24:21.896Z,41.60
2024-04-22T21:29:23.788Z,41.70
2024-04-22T21:34:25.722Z,41.70
2024-04-22T21:39:27.679Z,40.90
2024-04-22T21:44:30.161Z,41.60
2024-04-22T21:49:32.076Z,40.90
2024-04-22T21:54:33.759Z,41.40
2024-04-22T22:00:13.143Z,36.40
2024-04-22T22:05:52.673Z,40.40
2024-04-22T22:16:15.930Z,47.50
2024-04-22T22:21:17.826Z,48.90
2024-04-22T22:26:19.521Z,49.00
2024-04-22T22:31:21.314Z,48.50
2024-04-22T22:36:23.137Z,44.30
2024-04-22T22:41:24.792Z,48.50
2024-04-22T22:46:26.463Z,47.00
2024-04-22T22:51:28.137Z,45.50
2024-04-22T22:56:29.826Z,45.00
2024-04-22T23:01:31.517Z,44.00
2024-04-22T23:06:33.442Z,42.10
2024-04-22T23:11:35.163Z,43.20
2024-04-22T23:16:37.370Z,38.30
2024-04-22T23:21:39.067Z,42.00
2024-04-22T23:26:52.089Z,37.90
2024-04-22T23:31:53.827Z,37.60
2024-04-22T23:36:55.600Z,40.50
2024-04-22T23:41:57.288Z,40.80
2024-04-22T23:46:59.236Z,39.30
2024-04-22T23:52:01.097Z,43.50
2024-04-22T23:57:03.984Z,41.20
